createdAt,value
2018-06-27T00:01:33.457Z,14.28
2018-06-27T00:04:01.899Z,14.27
2018-06-27T00:06:31.097Z,14.27
2018-06-27T00:08:59.830Z,14.29
2018-06-27T00:11:28.250Z,14.30
2018-06-27T00:13:57.541Z,14.24
2018-06-27T00:16:26.628Z,14.21
2018-06-27T00:18:55.509Z,14.23
2018-06-27T00:21:24.074Z,14.25
2018-06-27T00:23:54.381Z,14.24
2018-06-27T00:26:23.285Z,14.24
2018-06-27T00:28:51.725Z,14.22
2018-06-27T00:31:20.385Z,14.22
2018-06-27T00:33:48.866Z,14.23
2018-06-27T00:36:17.785Z,14.23
2018-06-27T00:38:46.835Z,14.24
2018-06-27T00:41:15.837Z,14.23
2018-06-27T00:43:44.269Z,14.21
2018-06-27T00:46:13.213Z,14.16
2018-06-27T00:48:42.051Z,14.16
2018-06-27T00:51:10.501Z,14.14
2018-06-27T00:53:46.116Z,14.13
2018-06-27T00:56:14.977Z,14.10
2018-06-27T00:58:43.563Z,14.08
2018-06-27T01:01:12.869Z,14.08
2018-06-27T01:03:41.309Z,14.09
2018-06-27T01:06:10.153Z,14.10
2018-06-27T01:08:39.605Z,14.11
2018-06-27T01:11:08.030Z,14.10
2018-06-27T01:13:36.801Z,14.10
2018-06-27T01:16:05.561Z,14.09
2018-06-27T01:18:34.148Z,14.08
2018-06-27T01:21:02.655Z,14.09
2018-06-27T01:23:31.114Z,14.11
2018-06-27T01:26:01.514Z,14.13
2018-06-27T01:28:30.151Z,14.11
2018-06-27T01:30:59.670Z,14.10
2018-06-27T01:33:28.089Z,14.08
2018-06-27T01:35:58.142Z,14.08
2018-06-27T01:38:26.583Z,14.08
2018-06-27T01:40:58.718Z,14.10
2018-06-27T01:43:27.277Z,14.10
2018-06-27T01:45:55.698Z,14.07
2018-06-27T01:48:24.837Z,14.07
2018-06-27T01:50:53.471Z,14.08
2018-06-27T01:53:21.901Z,14.07
2018-06-27T01:55:50.593Z,14.08
2018-06-27T01:58:19.148Z,14.09
2018-06-27T02:00:47.565Z,14.13
2018-06-27T02:03:16.646Z,14.14
2018-06-27T02:05:45.229Z,13.97
2018-06-27T02:08:14.782Z,14.16
2018-06-27T02:10:43.743Z,14.15
2018-06-27T02:13:12.194Z,14.16
2018-06-27T02:15:40.607Z,14.16
2018-06-27T02:18:09.417Z,14.18
2018-06-27T02:20:37.890Z,14.20
2018-06-27T02:23:07.881Z,14.21
2018-06-27T02:25:36.949Z,14.25
2018-06-27T02:28:05.466Z,14.29
2018-06-27T02:30:33.982Z,14.32
2018-06-27T02:33:02.677Z,14.28
2018-06-27T02:35:31.193Z,14.26
2018-06-27T02:37:59.618Z,14.28
2018-06-27T02:40:28.089Z,14.33
2018-06-27T02:42:56.717Z,14.35
2018-06-27T02:45:25.221Z,14.38
2018-06-27T02:47:53.835Z,14.41
2018-06-27T02:50:22.993Z,14.44
2018-06-27T02:52:51.653Z,14.47
2018-06-27T02:55:20.067Z,14.52
2018-06-27T02:57:49.459Z,14.57
2018-06-27T03:00:17.889Z,14.62
2018-06-27T03:02:47.210Z,14.70
2018-06-27T03:05:16.478Z,14.76
2018-06-27T03:07:45.846Z,14.81
2018-06-27T03:10:14.269Z,14.86
2018-06-27T03:12:43.080Z,14.91
2018-06-27T03:15:11.906Z,14.95
2018-06-27T03:17:41.364Z,15.01
2018-06-27T03:20:09.851Z,15.04
2018-06-27T03:22:38.582Z,15.09
2018-06-27T03:25:07.018Z,15.15
2018-06-27T03:27:35.493Z,15.18
2018-06-27T03:30:04.118Z,15.24
2018-06-27T03:32:32.905Z,15.31
2018-06-27T03:35:02.010Z,15.35
2018-06-27T03:37:30.706Z,15.39
2018-06-27T03:39:59.126Z,15.44
2018-06-27T03:42:28.378Z,15.49
2018-06-27T03:44:57.073Z,15.54
2018-06-27T03:47:26.241Z,15.61
2018-06-27T03:49:54.697Z,15.49
2018-06-27T03:52:23.681Z,15.70
2018-06-27T03:54:52.497Z,15.76
2018-06-27T03:57:20.950Z,15.81
2018-06-27T03:59:49.390Z,15.88
2018-06-27T04:02:18.177Z,15.94
2018-06-27T04:04:46.614Z,16.02
2018-06-27T04:07:15.065Z,16.09
2018-06-27T04:09:44.466Z,16.16
2018-06-27T04:12:12.957Z,16.22
2018-06-27T04:14:42.426Z,16.30
2018-06-27T04:17:10.937Z,16.36
2018-06-27T04:19:40.005Z,16.45
2018-06-27T04:22:08.457Z,16.54
2018-06-27T04:27:06.992Z,16.72
2018-06-27T04:29:35.420Z,16.82
2018-06-27T04:32:03.860Z,16.91
2018-06-27T04:34:32.763Z,16.99
2018-06-27T04:37:01.746Z,17.06
2018-06-27T04:39:30.158Z,17.18
2018-06-27T04:42:00.819Z,17.27
2018-06-27T04:44:29.270Z,17.35
2018-06-27T04:46:57.974Z,17.42
2018-06-27T04:49:26.810Z,17.49
2018-06-27T04:51:55.269Z,17.58
2018-06-27T04:54:23.687Z,17.67
2018-06-27T04:56:53.162Z,17.74
2018-06-27T04:59:21.597Z,17.86
2018-06-27T05:01:50.062Z,17.91
2018-06-27T05:04:18.729Z,18.05
2018-06-27T05:06:47.229Z,18.15
2018-06-27T05:09:15.681Z,18.22
2018-06-27T05:11:44.716Z,18.28
2018-06-27T05:14:13.141Z,18.36
2018-06-27T05:16:41.954Z,18.43
2018-06-27T05:19:11.133Z,18.51
2018-06-27T05:21:39.599Z,18.59
2018-06-27T05:24:08.057Z,18.66
2018-06-27T05:26:37.264Z,18.74
2018-06-27T05:29:05.792Z,18.78
2018-06-27T05:31:34.372Z,18.85
2018-06-27T05:34:03.072Z,18.91
2018-06-27T05:36:31.999Z,18.98
2018-06-27T05:39:00.457Z,19.02
2018-06-27T05:41:30.343Z,19.08
2018-06-27T05:43:58.858Z,19.18
2018-06-27T05:46:27.366Z,19.25
2018-06-27T05:48:57.117Z,19.29
2018-06-27T05:51:25.614Z,19.32
2018-06-27T05:53:54.213Z,19.35
2018-06-27T05:56:23.235Z,19.42
2018-06-27T05:58:51.889Z,19.49
2018-06-27T06:01:20.605Z,19.53
2018-06-27T06:03:49.182Z,19.58
2018-06-27T06:06:17.614Z,19.65
2018-06-27T06:08:46.133Z,19.71
2018-06-27T06:11:14.700Z,19.81
2018-06-27T06:13:43.149Z,19.87
2018-06-27T06:16:12.105Z,19.93
2018-06-27T06:18:41.541Z,20.02
2018-06-27T06:21:09.992Z,20.12
2018-06-27T06:23:38.423Z,20.20
2018-06-27T06:26:07.093Z,20.29
2018-06-27T06:28:35.549Z,20.37
2018-06-27T06:31:04.039Z,20.44
2018-06-27T06:33:33.093Z,20.50
2018-06-27T06:36:01.523Z,20.59
2018-06-27T06:38:30.781Z,20.67
2018-06-27T06:40:59.793Z,20.76
2018-06-27T06:43:28.693Z,20.86
2018-06-27T06:45:57.207Z,20.90
2018-06-27T06:48:26.621Z,20.97
2018-06-27T06:50:55.109Z,21.07
2018-06-27T06:53:23.537Z,21.20
2018-06-27T06:55:52.117Z,21.32
2018-06-27T06:58:20.545Z,21.46
2018-06-27T07:00:49.114Z,21.56
2018-06-27T07:03:17.743Z,21.64
2018-06-27T07:05:46.625Z,21.68
2018-06-27T07:08:15.107Z,21.75
2018-06-27T07:10:43.658Z,21.83
2018-06-27T07:13:12.485Z,21.99
2018-06-27T07:15:40.919Z,22.10
2018-06-27T07:18:09.558Z,22.18
2018-06-27T07:20:38.294Z,22.24
2018-06-27T07:23:06.914Z,22.30
2018-06-27T07:25:35.573Z,22.40
2018-06-27T07:28:04.353Z,22.56
2018-06-27T07:30:33.793Z,22.66
2018-06-27T07:33:02.350Z,22.79
2018-06-27T07:35:30.925Z,22.97
2018-06-27T07:38:00.314Z,23.14
2018-06-27T07:40:29.247Z,23.36
2018-06-27T07:42:57.764Z,23.45
2018-06-27T07:45:26.249Z,23.72
2018-06-27T07:47:54.954Z,24.11
2018-06-27T07:50:23.701Z,24.43
2018-06-27T07:52:52.395Z,24.86
2018-06-27T07:55:20.985Z,25.14
2018-06-27T07:57:49.430Z,25.35
2018-06-27T08:00:18.126Z,25.84
2018-06-27T08:02:47.012Z,26.02
2018-06-27T08:05:15.494Z,26.29
2018-06-27T08:07:44.041Z,26.49
2018-06-27T08:10:12.990Z,26.61
2018-06-27T08:12:41.579Z,26.79
2018-06-27T08:15:10.000Z,26.97
2018-06-27T08:17:38.585Z,27.21
2018-06-27T08:20:07.085Z,27.68
2018-06-27T08:22:35.723Z,27.88
2018-06-27T08:25:04.888Z,28.32
2018-06-27T08:27:33.302Z,28.47
2018-06-27T08:30:01.874Z,28.06
2018-06-27T08:32:30.782Z,27.93
2018-06-27T08:34:59.195Z,27.82
2018-06-27T08:37:27.929Z,28.19
2018-06-27T08:39:56.557Z,28.70
2018-06-27T08:42:25.017Z,29.22
2018-06-27T08:44:53.440Z,29.27
2018-06-27T08:47:22.025Z,29.02
2018-06-27T08:49:50.584Z,28.91
2018-06-27T08:52:19.122Z,28.75
2018-06-27T08:54:48.393Z,28.76
2018-06-27T08:57:18.321Z,28.29
2018-06-27T08:59:47.242Z,28.82
2018-06-27T09:02:15.898Z,28.73
2018-06-27T09:04:44.607Z,28.84
2018-06-27T09:07:13.101Z,28.82
2018-06-27T09:09:42.169Z,29.32
2018-06-27T09:12:10.599Z,29.01
2018-06-27T09:14:39.061Z,28.89
2018-06-27T09:17:07.898Z,29.29
2018-06-27T09:19:36.330Z,29.07
2018-06-27T09:22:05.009Z,29.43
2018-06-27T09:24:34.174Z,29.87
2018-06-27T09:27:02.603Z,30.12
2018-06-27T09:29:31.017Z,30.58
2018-06-27T09:31:59.649Z,31.10
2018-06-27T09:34:28.082Z,30.25
2018-06-27T09:36:56.566Z,30.24
2018-06-27T09:39:26.386Z,30.16
2018-06-27T09:41:55.085Z,30.44
2018-06-27T09:44:24.042Z,30.38
2018-06-27T09:46:53.043Z,30.98
2018-06-27T09:49:21.842Z,31.20
2018-06-27T09:51:50.269Z,31.36
2018-06-27T09:54:19.098Z,31.73
2018-06-27T09:56:47.920Z,31.43
2018-06-27T09:59:16.329Z,31.81
2018-06-27T10:01:44.974Z,32.18
2018-06-27T10:04:13.733Z,32.42
2018-06-27T10:06:42.502Z,32.68
2018-06-27T10:09:11.492Z,32.97
2018-06-27T10:11:40.069Z,32.79
2018-06-27T10:14:08.498Z,32.66
2018-06-27T10:16:37.244Z,32.88
2018-06-27T10:19:06.028Z,33.08
2018-06-27T10:21:34.614Z,33.20
2018-06-27T10:24:03.283Z,33.67
2018-06-27T10:26:32.089Z,34.21
2018-06-27T10:29:00.628Z,34.42
2018-06-27T10:31:29.660Z,33.33
2018-06-27T10:33:58.125Z,32.47
2018-06-27T10:36:26.672Z,32.01
2018-06-27T10:38:55.139Z,32.55
2018-06-27T10:41:23.686Z,32.69
2018-06-27T10:43:52.649Z,32.52
2018-06-27T10:46:21.463Z,32.68
2018-06-27T10:48:49.916Z,32.58
2018-06-27T10:51:19.037Z,31.94
2018-06-27T10:53:47.651Z,31.47
2018-06-27T10:56:16.079Z,31.73
2018-06-27T10:58:44.687Z,31.91
2018-06-27T11:01:13.727Z,32.76
2018-06-27T11:03:42.118Z,33.06
2018-06-27T11:06:10.764Z,32.44
2018-06-27T11:08:39.670Z,31.82
2018-06-27T11:11:08.108Z,31.94
2018-06-27T11:13:36.849Z,32.64
2018-06-27T11:16:05.475Z,33.26
2018-06-27T11:18:33.987Z,33.39
2018-06-27T11:21:02.516Z,33.11
2018-06-27T11:23:31.097Z,33.10
2018-06-27T11:25:59.557Z,33.10
2018-06-27T11:28:28.258Z,32.57
2018-06-27T11:30:57.284Z,31.59
2018-06-27T11:33:25.746Z,32.70
2018-06-27T11:35:54.885Z,33.34
2018-06-27T11:38:23.463Z,33.31
2018-06-27T11:40:51.860Z,33.50
2018-06-27T11:43:20.765Z,33.47
2018-06-27T11:45:49.269Z,33.00
2018-06-27T11:48:17.693Z,33.40
2018-06-27T11:50:46.198Z,33.99
2018-06-27T11:53:14.729Z,34.49
2018-06-27T11:55:43.182Z,34.86
2018-06-27T11:58:12.140Z,35.00
2018-06-27T12:00:40.652Z,35.06
2018-06-27T12:03:09.118Z,35.02
2018-06-27T12:05:37.992Z,35.11
2018-06-27T12:08:07.047Z,34.93
2018-06-27T12:10:35.814Z,34.61
2018-06-27T12:13:04.428Z,34.30
2018-06-27T12:15:33.906Z,34.32
2018-06-27T12:18:02.379Z,34.20
2018-06-27T12:20:30.820Z,33.78
2018-06-27T12:22:59.582Z,33.99
2018-06-27T12:25:28.038Z,34.62
2018-06-27T12:27:56.611Z,35.34
2018-06-27T12:30:25.753Z,35.09
2018-06-27T12:32:54.451Z,34.97
2018-06-27T12:35:23.245Z,35.19
2018-06-27T12:37:52.394Z,35.55
2018-06-27T12:40:21.865Z,36.21
2018-06-27T12:42:50.294Z,36.75
2018-06-27T12:45:18.976Z,37.02
2018-06-27T12:47:47.753Z,37.44
2018-06-27T12:50:16.279Z,37.50
2018-06-27T12:52:44.871Z,37.61
2018-06-27T12:55:14.076Z,37.45
2018-06-27T12:57:42.684Z,37.40
2018-06-27T13:00:11.595Z,37.23
2018-06-27T13:02:40.538Z,37.33
2018-06-27T13:05:09.747Z,36.31
2018-06-27T13:07:38.471Z,35.27
2018-06-27T13:10:08.193Z,35.64
2018-06-27T13:12:36.978Z,36.48
2018-06-27T13:15:06.652Z,36.64
2018-06-27T13:17:35.077Z,36.90
2018-06-27T13:20:03.670Z,37.47
2018-06-27T13:22:32.631Z,38.03
2018-06-27T13:25:01.086Z,37.70
2018-06-27T13:27:30.414Z,38.10
2018-06-27T13:29:58.895Z,38.84
2018-06-27T13:32:27.684Z,39.38
2018-06-27T13:34:57.140Z,39.65
2018-06-27T13:37:26.850Z,39.95
2018-06-27T13:39:55.870Z,40.16
2018-06-27T13:42:24.858Z,39.99
2018-06-27T13:44:53.597Z,40.26
2018-06-27T13:47:22.900Z,40.57
2018-06-27T13:49:51.398Z,40.99
2018-06-27T13:52:20.265Z,40.97
2018-06-27T13:54:53.945Z,41.13
2018-06-27T13:57:22.864Z,41.53
2018-06-27T13:59:51.382Z,41.54
2018-06-27T14:02:20.255Z,41.39
2018-06-27T14:04:48.787Z,41.02
2018-06-27T14:07:17.237Z,40.11
2018-06-27T14:09:45.670Z,39.63
2018-06-27T14:12:14.963Z,39.29
2018-06-27T14:14:43.566Z,38.94
2018-06-27T14:17:12.014Z,38.59
2018-06-27T14:19:40.572Z,38.28
2018-06-27T14:22:09.705Z,37.79
2018-06-27T14:24:38.730Z,37.83
2018-06-27T14:27:08.114Z,37.94
2018-06-27T14:29:37.483Z,38.20
2018-06-27T14:32:06.037Z,38.31
2018-06-27T14:34:35.570Z,38.12
2018-06-27T14:37:04.155Z,38.25
2018-06-27T14:39:32.565Z,38.37
2018-06-27T14:42:01.346Z,38.52
2018-06-27T14:44:30.101Z,38.51
2018-06-27T14:46:58.518Z,38.52
2018-06-27T14:49:27.422Z,38.44
2018-06-27T14:51:56.957Z,38.35
2018-06-27T14:54:25.446Z,38.20
2018-06-27T14:56:53.948Z,38.28
2018-06-27T14:59:22.483Z,38.01
2018-06-27T15:01:50.930Z,38.22
2018-06-27T15:04:25.939Z,38.51
2018-06-27T15:06:54.698Z,38.50
2018-06-27T15:09:23.137Z,38.49
2018-06-27T15:11:51.730Z,38.32
2018-06-27T15:14:20.785Z,37.90
2018-06-27T15:16:49.445Z,37.89
2018-06-27T15:19:18.986Z,37.95
2018-06-27T15:21:48.404Z,38.03
2018-06-27T15:24:17.138Z,38.19
2018-06-27T15:26:46.069Z,38.45
2018-06-27T15:29:15.069Z,38.40
2018-06-27T15:31:43.589Z,38.26
2018-06-27T15:34:12.144Z,38.20
2018-06-27T15:36:41.250Z,37.93
2018-06-27T15:39:10.843Z,37.98
2018-06-27T15:41:39.603Z,38.02
2018-06-27T15:44:08.418Z,38.04
2018-06-27T15:46:37.275Z,37.74
2018-06-27T15:49:07.573Z,37.66
2018-06-27T15:51:36.142Z,37.50
2018-06-27T15:54:04.602Z,37.13
2018-06-27T15:56:33.175Z,36.87
2018-06-27T15:59:02.013Z,36.92
2018-06-27T16:01:31.512Z,37.02
2018-06-27T16:04:00.013Z,37.05
2018-06-27T16:06:28.727Z,37.18
2018-06-27T16:08:57.194Z,37.33
2018-06-27T16:11:25.795Z,37.04
2018-06-27T16:13:54.589Z,36.69
2018-06-27T16:16:23.037Z,36.58
2018-06-27T16:18:51.757Z,36.45
2018-06-27T16:21:20.850Z,36.04
2018-06-27T16:23:49.322Z,35.95
2018-06-27T16:26:17.875Z,35.90
2018-06-27T16:28:46.656Z,35.66
2018-06-27T16:31:15.082Z,35.63
2018-06-27T16:33:43.971Z,35.38
2018-06-27T16:36:12.658Z,35.02
2018-06-27T16:38:41.446Z,34.81
2018-06-27T16:41:09.988Z,34.45
2018-06-27T16:43:38.467Z,34.23
2018-06-27T16:46:06.958Z,34.14
2018-06-27T16:48:35.402Z,33.73
2018-06-27T16:51:04.049Z,33.64
2018-06-27T16:53:32.470Z,33.51
2018-06-27T16:56:01.120Z,33.34
2018-06-27T16:58:29.675Z,32.80
2018-06-27T17:00:58.237Z,31.99
2018-06-27T17:03:27.135Z,31.11
2018-06-27T17:05:55.993Z,30.21
2018-06-27T17:08:24.454Z,29.49
2018-06-27T17:10:53.501Z,28.92
2018-06-27T17:13:21.947Z,28.40
2018-06-27T17:15:50.455Z,27.94
2018-06-27T17:18:19.263Z,27.42
2018-06-27T17:20:48.190Z,26.98
2018-06-27T17:23:16.980Z,26.66
2018-06-27T17:25:45.670Z,26.43
2018-06-27T17:28:14.094Z,26.16
2018-06-27T17:30:43.418Z,25.83
2018-06-27T17:33:12.510Z,25.65
2018-06-27T17:35:40.967Z,25.45
2018-06-27T17:38:09.551Z,25.15
2018-06-27T17:40:38.885Z,24.98
2018-06-27T17:43:07.340Z,24.87
2018-06-27T17:45:35.806Z,24.75
2018-06-27T17:48:04.695Z,24.58
2018-06-27T17:50:33.146Z,24.53
2018-06-27T17:53:01.974Z,24.42
2018-06-27T17:55:30.625Z,24.27
2018-06-27T17:57:59.238Z,24.11
2018-06-27T18:00:27.683Z,24.02
2018-06-27T18:02:57.286Z,23.83
2018-06-27T18:05:26.042Z,23.75
2018-06-27T18:07:54.466Z,23.66
2018-06-27T18:10:23.745Z,23.56
2018-06-27T18:12:52.818Z,23.51
2018-06-27T18:15:21.273Z,23.40
2018-06-27T18:17:49.852Z,23.34
2018-06-27T18:20:18.340Z,23.25
2018-06-27T18:22:47.081Z,23.15
2018-06-27T18:25:15.659Z,23.07
2018-06-27T18:27:44.252Z,22.94
2018-06-27T18:30:13.318Z,22.83
2018-06-27T18:32:41.906Z,22.79
2018-06-27T18:35:10.609Z,22.72
2018-06-27T18:37:39.376Z,22.65
2018-06-27T18:40:08.746Z,22.61
2018-06-27T18:42:37.959Z,22.55
2018-06-27T18:45:07.178Z,22.51
2018-06-27T18:47:35.667Z,22.45
2018-06-27T18:50:04.278Z,22.35
2018-06-27T18:52:32.738Z,22.28
2018-06-27T18:55:01.222Z,22.22
2018-06-27T18:57:29.814Z,22.14
2018-06-27T18:59:58.257Z,22.05
2018-06-27T19:02:26.823Z,21.95
2018-06-27T19:04:55.626Z,21.91
2018-06-27T19:07:25.101Z,21.85
2018-06-27T19:09:53.574Z,21.77
2018-06-27T19:12:22.275Z,21.74
2018-06-27T19:14:51.145Z,21.69
2018-06-27T19:17:19.814Z,21.56
2018-06-27T19:19:48.277Z,21.50
2018-06-27T19:22:16.824Z,21.45
2018-06-27T19:24:45.717Z,21.42
2018-06-27T19:27:14.271Z,21.32
2018-06-27T19:29:43.029Z,21.27
2018-06-27T19:32:11.575Z,21.20
2018-06-27T19:34:39.990Z,21.13
2018-06-27T19:37:08.829Z,21.11
2018-06-27T19:39:38.600Z,21.08
2018-06-27T19:42:07.042Z,21.02
2018-06-27T19:44:36.290Z,20.99
2018-06-27T19:47:04.996Z,20.88
2018-06-27T19:49:33.373Z,20.81
2018-06-27T19:52:02.274Z,20.64
2018-06-27T19:54:30.805Z,20.55
2018-06-27T19:56:59.301Z,20.49
2018-06-27T19:59:27.822Z,20.37
2018-06-27T20:01:58.038Z,20.27
2018-06-27T20:04:26.558Z,20.19
2018-06-27T20:06:54.974Z,20.15
2018-06-27T20:09:23.453Z,20.14
2018-06-27T20:11:51.889Z,20.05
2018-06-27T20:14:20.437Z,19.95
2018-06-27T20:16:49.206Z,19.82
2018-06-27T20:19:17.760Z,19.76
2018-06-27T20:21:46.402Z,19.75
2018-06-27T20:24:21.491Z,19.78
2018-06-27T20:26:50.497Z,19.81
2018-06-27T20:29:18.941Z,19.76
2018-06-27T20:31:47.926Z,19.74
2018-06-27T20:34:16.581Z,19.70
2018-06-27T20:36:45.049Z,19.73
2018-06-27T20:39:13.930Z,19.69
2018-06-27T20:41:42.730Z,19.65
2018-06-27T20:44:11.158Z,19.69
2018-06-27T20:46:39.977Z,19.74
2018-06-27T20:49:11.341Z,19.66
2018-06-27T20:51:40.370Z,19.64
2018-06-27T20:54:09.362Z,19.59
2018-06-27T20:56:37.820Z,19.49
2018-06-27T20:59:06.394Z,19.51
2018-06-27T21:01:35.679Z,19.53
2018-06-27T21:04:04.266Z,19.55
2018-06-27T21:06:32.819Z,19.57
2018-06-27T21:09:01.495Z,19.58
2018-06-27T21:11:29.982Z,19.60
2018-06-27T21:13:58.426Z,19.62
2018-06-27T21:16:27.462Z,19.64
2018-06-27T21:18:56.718Z,19.67
2018-06-27T21:21:25.222Z,19.69
2018-06-27T21:23:54.517Z,19.74
2018-06-27T21:26:23.118Z,19.77
2018-06-27T21:28:52.149Z,19.76
2018-06-27T21:31:21.414Z,19.74
2018-06-27T21:33:49.914Z,19.73
2018-06-27T21:36:18.837Z,19.70
2018-06-27T21:38:47.522Z,19.70
2018-06-27T21:41:16.950Z,19.65
2018-06-27T21:43:45.475Z,19.65
2018-06-27T21:46:14.126Z,19.61
2018-06-27T21:48:42.742Z,19.55
2018-06-27T21:51:11.278Z,19.52
2018-06-27T21:53:40.410Z,19.43
2018-06-27T21:56:08.885Z,19.41
2018-06-27T21:58:37.358Z,19.33
2018-06-27T22:01:05.986Z,19.27
2018-06-27T22:03:34.417Z,19.25
2018-06-27T22:06:02.925Z,19.23
2018-06-27T22:08:31.997Z,19.19
2018-06-27T22:11:00.459Z,19.21
2018-06-27T22:13:28.938Z,19.21
2018-06-27T22:15:57.635Z,19.17
2018-06-27T22:18:26.082Z,18.93
2018-06-27T22:20:54.626Z,19.09
2018-06-27T22:23:23.210Z,19.12
2018-06-27T22:25:51.897Z,19.07
2018-06-27T22:28:20.393Z,19.04
2018-06-27T22:30:49.562Z,19.03
2018-06-27T22:33:18.414Z,19.01
2018-06-27T22:35:46.882Z,18.96
2018-06-27T22:38:15.618Z,18.92
2018-06-27T22:40:44.077Z,18.90
2018-06-27T22:43:12.534Z,18.89
2018-06-27T22:45:41.446Z,18.91
2018-06-27T22:48:09.967Z,18.88
2018-06-27T22:50:38.686Z,18.84
2018-06-27T22:53:07.209Z,18.80
2018-06-27T22:55:35.960Z,18.82
2018-06-27T22:58:04.585Z,18.79
2018-06-27T23:00:33.474Z,18.76
2018-06-27T23:03:01.958Z,18.74
2018-06-27T23:05:31.482Z,18.71
2018-06-27T23:08:00.023Z,18.68
2018-06-27T23:10:28.571Z,18.66
2018-06-27T23:12:57.941Z,18.67
2018-06-27T23:15:26.818Z,18.65
2018-06-27T23:17:56.477Z,18.64
2018-06-27T23:20:25.127Z,18.62
2018-06-27T23:22:53.831Z,18.63
2018-06-27T23:25:22.271Z,18.61
2018-06-27T23:27:50.993Z,18.62
2018-06-27T23:30:19.865Z,18.60
2018-06-27T23:32:49.254Z,18.61
2018-06-27T23:35:17.844Z,18.58
2018-06-27T23:37:46.382Z,18.60
2018-06-27T23:40:14.874Z,18.62
2018-06-27T23:42:43.769Z,18.62
2018-06-27T23:45:12.357Z,18.61
2018-06-27T23:47:40.793Z,18.58
2018-06-27T23:50:09.390Z,18.57
2018-06-27T23:52:38.478Z,18.59
2018-06-27T23:55:07.601Z,18.62
2018-06-27T23:57:36.453Z,18.61
